createdAt,value
2022-08-17T00:00:43.368Z,4.15
2022-08-17T00:02:57.142Z,4.07
2022-08-17T00:05:00.398Z,4.55
2022-08-17T00:07:05.076Z,4.65
2022-08-17T00:09:07.317Z,5.03
2022-08-17T00:11:17.821Z,4.93
2022-08-17T00:13:25.809Z,4.32
2022-08-17T00:15:28.189Z,4.10
2022-08-17T00:17:30.271Z,4.18
2022-08-17T00:19:33.078Z,4.80
2022-08-17T00:22:10.638Z,4.15
2022-08-17T00:24:01.172Z,5.25
2022-08-17T00:26:03.253Z,4.47
2022-08-17T00:28:06.307Z,4.50
2022-08-17T00:30:11.831Z,4.57
2022-08-17T00:33:12.527Z,4.93
2022-08-17T00:34:36.722Z,5.13
2022-08-17T00:36:41.564Z,4.68
2022-08-17T00:38:43.834Z,5.15
2022-08-17T00:40:51.844Z,4.47
2022-08-17T00:43:07.170Z,5.10
2022-08-17T00:45:14.874Z,4.55
2022-08-17T00:47:17.191Z,4.65
2022-08-17T00:49:19.962Z,5.22
2022-08-17T00:51:28.057Z,4.90
2022-08-17T00:53:33.815Z,4.47
2022-08-17T00:55:36.687Z,4.80
2022-08-17T00:57:43.612Z,4.50
2022-08-17T01:00:01.646Z,5.30
2022-08-17T01:02:06.906Z,4.70
2022-08-17T01:04:10.977Z,4.47
2022-08-17T01:06:13.455Z,3.80
2022-08-17T01:08:19.894Z,4.47
2022-08-17T01:10:58.349Z,5.00
2022-08-17T01:12:51.962Z,3.88
2022-08-17T01:14:53.923Z,4.60
2022-08-17T01:16:56.473Z,4.88
2022-08-17T01:19:11.049Z,4.05
2022-08-17T01:21:26.860Z,4.10
2022-08-17T01:23:29.196Z,4.05
2022-08-17T01:25:31.728Z,3.63
2022-08-17T01:27:34.295Z,4.47
2022-08-17T01:29:41.231Z,4.85
2022-08-17T01:31:47.443Z,4.05
2022-08-17T01:33:49.831Z,4.10
2022-08-17T01:35:52.031Z,4.07
2022-08-17T01:37:53.942Z,4.60
2022-08-17T01:40:33.128Z,4.20
2022-08-17T01:42:40.529Z,4.80
2022-08-17T01:44:42.569Z,4.25
2022-08-17T01:46:44.662Z,4.07
2022-08-17T01:48:47.702Z,4.00
2022-08-17T01:50:52.095Z,4.05
2022-08-17T01:52:58.658Z,5.00
2022-08-17T01:55:01.194Z,4.45
2022-08-17T01:57:04.297Z,5.25
2022-08-17T01:59:06.646Z,4.07
2022-08-17T02:01:10.257Z,4.38
2022-08-17T02:03:13.015Z,4.68
2022-08-17T02:05:15.329Z,5.05
2022-08-17T02:07:18.336Z,4.60
2022-08-17T02:09:30.183Z,4.22
2022-08-17T02:11:34.683Z,4.28
2022-08-17T02:13:38.103Z,4.15
2022-08-17T02:15:41.604Z,4.20
2022-08-17T02:17:43.611Z,4.43
2022-08-17T02:19:45.747Z,4.95
2022-08-17T02:21:50.594Z,4.28
2022-08-17T02:23:52.970Z,4.40
2022-08-17T02:25:58.110Z,4.00
2022-08-17T02:28:00.696Z,3.90
2022-08-17T02:30:05.312Z,4.63
2022-08-17T02:32:28.621Z,3.78
2022-08-17T02:34:31.468Z,4.28
2022-08-17T02:36:35.349Z,4.82
2022-08-17T02:38:38.546Z,4.50
2022-08-17T02:40:41.533Z,4.45
2022-08-17T02:42:45.417Z,4.60
2022-08-17T02:44:47.506Z,4.35
2022-08-17T02:46:49.429Z,3.97
2022-08-17T02:48:51.582Z,4.32
2022-08-17T02:50:53.700Z,3.70
2022-08-17T02:53:01.697Z,3.75
2022-08-17T02:55:07.612Z,4.80
2022-08-17T02:57:10.762Z,4.10
2022-08-17T02:59:12.804Z,4.80
2022-08-17T03:01:14.876Z,4.10
2022-08-17T03:03:21.018Z,4.78
2022-08-17T03:05:27.480Z,4.18
2022-08-17T03:07:31.217Z,4.25
2022-08-17T03:09:33.816Z,4.78
2022-08-17T03:11:36.028Z,4.25
2022-08-17T03:13:40.577Z,5.13
2022-08-17T03:15:46.179Z,5.00
2022-08-17T03:17:48.707Z,4.68
2022-08-17T03:19:51.132Z,3.92
2022-08-17T03:21:54.962Z,3.92
2022-08-17T03:23:57.839Z,4.32
2022-08-17T03:26:00.905Z,4.38
2022-08-17T03:28:04.315Z,5.10
2022-08-17T03:30:09.053Z,4.22
2022-08-17T03:32:15.011Z,4.05
2022-08-17T03:34:17.998Z,4.38
2022-08-17T03:36:20.176Z,4.20
2022-08-17T03:38:22.323Z,4.07
2022-08-17T03:40:55.482Z,4.70
2022-08-17T03:42:48.388Z,3.97
2022-08-17T03:44:54.282Z,3.92
2022-08-17T03:47:18.195Z,3.83
2022-08-17T03:49:39.074Z,3.83
2022-08-17T03:51:59.967Z,4.95
2022-08-17T03:54:20.630Z,4.05
2022-08-17T03:56:41.147Z,4.63
2022-08-17T03:58:43.307Z,4.70
2022-08-17T04:00:46.402Z,4.43
2022-08-17T04:02:48.628Z,4.13
2022-08-17T04:04:52.411Z,3.97
2022-08-17T04:06:54.729Z,3.70
2022-08-17T04:08:56.855Z,4.03
2022-08-17T04:11:01.241Z,4.20
2022-08-17T04:13:03.443Z,4.95
2022-08-17T04:15:06.708Z,4.72
2022-08-17T04:17:08.793Z,5.30
2022-08-17T04:19:13.213Z,5.82
2022-08-17T04:21:15.288Z,5.18
2022-08-17T04:23:18.659Z,4.85
2022-08-17T04:25:22.282Z,4.70
2022-08-17T04:27:24.486Z,4.82
2022-08-17T04:29:26.727Z,5.00
2022-08-17T04:31:48.875Z,4.38
2022-08-17T04:33:51.422Z,4.22
2022-08-17T04:35:58.239Z,4.85
2022-08-17T04:38:01.380Z,5.05
2022-08-17T04:40:22.974Z,4.22
2022-08-17T04:42:28.755Z,4.68
2022-08-17T04:44:37.771Z,4.72
2022-08-17T04:46:40.121Z,4.47
2022-08-17T04:48:46.230Z,4.32
2022-08-17T04:50:50.870Z,5.00
2022-08-17T04:52:52.977Z,4.70
2022-08-17T04:54:55.219Z,4.20
2022-08-17T04:56:57.307Z,4.70
2022-08-17T04:59:09.037Z,5.00
2022-08-17T05:01:11.720Z,4.35
2022-08-17T05:03:14.195Z,5.20
2022-08-17T05:05:29.391Z,4.57
2022-08-17T05:07:33.148Z,4.63
2022-08-17T05:09:35.204Z,4.45
2022-08-17T05:11:37.319Z,4.30
2022-08-17T05:13:39.208Z,4.22
2022-08-17T05:15:44.820Z,4.32
2022-08-17T05:17:47.314Z,4.35
2022-08-17T05:19:52.019Z,4.32
2022-08-17T05:21:54.255Z,4.30
2022-08-17T05:23:58.593Z,3.65
2022-08-17T05:26:02.015Z,4.50
2022-08-17T05:28:04.949Z,4.95
2022-08-17T05:30:11.495Z,4.95
2022-08-17T05:32:39.054Z,5.13
2022-08-17T05:34:37.098Z,4.20
2022-08-17T05:36:43.386Z,3.97
2022-08-17T05:38:46.747Z,3.75
2022-08-17T05:40:49.477Z,3.83
2022-08-17T05:42:53.167Z,4.07
2022-08-17T05:44:58.974Z,4.20
2022-08-17T05:47:02.202Z,4.40
2022-08-17T05:49:09.865Z,3.92
2022-08-17T05:51:12.380Z,3.63
2022-08-17T05:53:38.104Z,3.88
2022-08-17T05:55:50.859Z,3.95
2022-08-17T05:58:10.809Z,3.90
2022-08-17T06:00:15.539Z,3.78
2022-08-17T06:02:48.120Z,4.00
2022-08-17T06:05:14.818Z,4.45
2022-08-17T06:07:46.205Z,4.43
2022-08-17T06:10:13.769Z,4.70
2022-08-17T06:12:27.967Z,4.85
2022-08-17T06:14:38.610Z,5.30
2022-08-17T06:16:45.131Z,4.35
2022-08-17T06:18:57.751Z,4.68
2022-08-17T06:21:07.155Z,4.28
2022-08-17T06:23:14.608Z,4.45
2022-08-17T06:25:39.733Z,4.10
2022-08-17T06:28:03.793Z,4.32
2022-08-17T06:30:12.799Z,4.43
2022-08-17T06:32:15.287Z,4.53
2022-08-17T06:34:17.928Z,3.97
2022-08-17T06:36:44.917Z,4.65
2022-08-17T06:39:02.297Z,4.35
2022-08-17T06:41:43.665Z,4.03
2022-08-17T06:43:48.020Z,4.65
2022-08-17T06:45:59.090Z,4.30
2022-08-17T06:48:11.745Z,4.47
2022-08-17T06:50:20.756Z,4.28
2022-08-17T06:52:56.058Z,4.18
2022-08-17T06:55:05.546Z,4.90
2022-08-17T06:57:23.211Z,4.30
2022-08-17T06:59:57.062Z,4.30
2022-08-17T07:02:06.161Z,4.85
2022-08-17T07:04:12.348Z,4.90
2022-08-17T07:06:21.185Z,4.30
2022-08-17T07:08:50.050Z,3.92
2022-08-17T07:10:58.015Z,4.68
2022-08-17T07:13:14.299Z,4.80
2022-08-17T07:15:21.987Z,4.35
2022-08-17T07:17:46.684Z,3.88
2022-08-17T07:19:51.392Z,3.42
2022-08-17T07:22:23.486Z,4.25
2022-08-17T07:24:30.071Z,3.40
2022-08-17T07:26:33.356Z,3.58
2022-08-17T07:28:37.410Z,3.65
2022-08-17T07:30:47.621Z,3.65
2022-08-17T07:32:57.992Z,4.13
2022-08-17T07:35:31.078Z,3.75
2022-08-17T07:38:24.957Z,3.80
2022-08-17T07:40:35.773Z,4.10
2022-08-17T07:42:40.727Z,4.10
2022-08-17T07:44:56.672Z,3.65
2022-08-17T07:47:17.997Z,3.83
2022-08-17T07:49:37.255Z,4.63
2022-08-17T07:51:45.938Z,4.07
2022-08-17T07:53:48.841Z,3.78
2022-08-17T07:55:52.921Z,3.92
2022-08-17T07:57:57.658Z,3.90
2022-08-17T08:00:05.482Z,4.45
2022-08-17T08:02:40.557Z,4.88
2022-08-17T08:05:01.110Z,4.65
2022-08-17T08:07:24.574Z,4.50
2022-08-17T08:09:30.077Z,5.32
2022-08-17T08:11:42.450Z,5.13
2022-08-17T08:13:46.511Z,4.85
2022-08-17T08:15:54.762Z,5.00
2022-08-17T08:18:00.554Z,5.05
2022-08-17T08:20:50.852Z,4.82
2022-08-17T08:22:43.606Z,5.03
2022-08-17T08:25:39.433Z,5.18
2022-08-17T08:27:50.351Z,5.40
2022-08-17T08:30:12.524Z,5.20
2022-08-17T08:32:23.465Z,5.80
2022-08-17T08:34:47.360Z,5.28
2022-08-17T08:37:14.955Z,5.68
2022-08-17T08:39:35.482Z,5.32
2022-08-17T08:41:48.579Z,5.97
2022-08-17T08:44:09.117Z,5.10
2022-08-17T08:46:43.638Z,5.68
2022-08-17T08:49:12.032Z,5.18
2022-08-17T08:51:59.327Z,5.40
2022-08-17T08:54:26.699Z,5.22
2022-08-17T08:57:23.121Z,5.05
2022-08-17T08:59:42.127Z,5.30
2022-08-17T09:02:21.513Z,5.53
2022-08-17T09:05:12.912Z,5.35
2022-08-17T09:07:25.423Z,5.80
2022-08-17T09:09:43.262Z,5.57
2022-08-17T09:12:08.547Z,5.50
2022-08-17T09:14:31.582Z,6.18
2022-08-17T09:17:02.066Z,6.45
2022-08-17T09:19:30.735Z,5.75
2022-08-17T09:21:58.628Z,6.40
2022-08-17T09:24:21.508Z,6.07
2022-08-17T09:26:30.640Z,5.55
2022-08-17T09:28:47.637Z,6.75
2022-08-17T09:31:02.556Z,6.20
2022-08-17T09:33:10.269Z,5.82
2022-08-17T09:35:15.517Z,5.40
2022-08-17T09:37:33.268Z,5.65
2022-08-17T09:40:19.432Z,6.65
2022-08-17T09:42:34.345Z,5.72
2022-08-17T09:44:51.645Z,5.93
2022-08-17T09:47:05.900Z,5.93
2022-08-17T09:49:32.133Z,5.55
2022-08-17T09:51:58.460Z,5.72
2022-08-17T09:54:15.100Z,5.25
2022-08-17T09:56:48.238Z,6.22
2022-08-17T09:59:21.599Z,5.80
2022-08-17T10:01:35.759Z,6.68
2022-08-17T10:04:02.988Z,6.07
2022-08-17T10:06:24.897Z,5.82
2022-08-17T10:09:10.518Z,5.75
2022-08-17T10:12:09.272Z,6.55
2022-08-17T10:14:37.847Z,5.85
2022-08-17T10:16:56.388Z,5.63
2022-08-17T10:19:14.062Z,5.50
2022-08-17T10:21:37.985Z,6.15
2022-08-17T10:24:00.232Z,5.57
2022-08-17T10:26:25.074Z,5.75
2022-08-17T10:28:32.797Z,5.45
2022-08-17T10:30:44.904Z,6.38
2022-08-17T10:32:56.147Z,6.05
2022-08-17T10:35:35.265Z,6.03
2022-08-17T10:37:54.098Z,6.20
2022-08-17T10:40:14.882Z,5.95
2022-08-17T10:42:35.773Z,6.70
2022-08-17T10:45:00.674Z,5.97
2022-08-17T10:47:16.098Z,6.18
2022-08-17T10:49:18.227Z,6.28
2022-08-17T10:51:39.464Z,6.30
2022-08-17T10:53:41.626Z,6.53
2022-08-17T10:56:12.654Z,6.32
2022-08-17T10:58:22.226Z,6.50
2022-08-17T11:00:27.905Z,5.53
2022-08-17T11:02:40.886Z,5.97
2022-08-17T11:04:50.204Z,6.20
2022-08-17T11:07:16.887Z,5.78
2022-08-17T11:09:49.127Z,6.50
2022-08-17T11:12:09.302Z,6.32
2022-08-17T11:14:36.290Z,6.53
2022-08-17T11:16:40.975Z,6.85
2022-08-17T11:19:21.116Z,5.78
2022-08-17T11:21:55.313Z,6.70
2022-08-17T11:24:37.206Z,6.25
2022-08-17T11:26:46.972Z,6.25
2022-08-17T11:28:54.632Z,6.35
2022-08-17T11:31:01.545Z,7.15
2022-08-17T11:33:32.777Z,6.93
2022-08-17T11:35:45.183Z,6.30
2022-08-17T11:38:16.072Z,6.85
2022-08-17T11:40:24.912Z,6.78
2022-08-17T11:42:34.729Z,6.07
2022-08-17T11:44:51.696Z,7.10
2022-08-17T11:47:37.319Z,6.60
2022-08-17T11:50:20.891Z,6.55
2022-08-17T11:52:49.141Z,6.20
2022-08-17T11:54:51.489Z,6.18
2022-08-17T11:56:53.906Z,7.25
2022-08-17T11:58:56.412Z,7.68
2022-08-17T12:01:10.740Z,6.82
2022-08-17T12:03:33.188Z,7.32
2022-08-17T12:05:36.828Z,6.63
2022-08-17T12:07:42.719Z,6.47
2022-08-17T12:09:50.153Z,6.50
2022-08-17T12:12:14.200Z,6.53
2022-08-17T12:14:35.682Z,7.20
2022-08-17T12:16:45.287Z,6.57
2022-08-17T12:18:59.895Z,6.40
2022-08-17T12:21:18.599Z,6.13
2022-08-17T12:23:32.272Z,6.60
2022-08-17T12:25:39.343Z,6.45
2022-08-17T12:28:06.086Z,6.47
2022-08-17T12:30:14.384Z,7.30
2022-08-17T12:32:20.243Z,6.40
2022-08-17T12:34:29.431Z,5.95
2022-08-17T12:36:34.038Z,6.65
2022-08-17T12:38:38.420Z,6.53
2022-08-17T12:40:55.504Z,6.57
2022-08-17T12:43:21.212Z,6.70
2022-08-17T12:45:27.503Z,6.10
2022-08-17T12:47:30.614Z,6.68
2022-08-17T12:49:39.682Z,6.28
2022-08-17T12:51:48.179Z,6.38
2022-08-17T12:53:55.072Z,6.70
2022-08-17T12:56:03.448Z,6.28
2022-08-17T12:58:14.344Z,5.68
2022-08-17T13:00:31.399Z,6.80
2022-08-17T13:02:43.547Z,6.45
2022-08-17T13:04:46.567Z,5.95
2022-08-17T13:06:52.011Z,6.57
2022-08-17T13:09:35.829Z,6.32
2022-08-17T13:11:52.558Z,6.68
2022-08-17T13:13:56.449Z,6.63
2022-08-17T13:16:02.089Z,5.65
2022-08-17T13:18:28.647Z,5.60
2022-08-17T13:20:31.369Z,6.35
2022-08-17T13:22:33.762Z,6.38
2022-08-17T13:24:38.160Z,6.28
2022-08-17T13:26:45.524Z,5.80
2022-08-17T13:28:50.424Z,6.35
2022-08-17T13:30:52.690Z,6.38
2022-08-17T13:32:57.351Z,6.30
2022-08-17T13:35:15.274Z,6.53
2022-08-17T13:37:29.983Z,6.65
2022-08-17T13:39:41.815Z,6.65
2022-08-17T13:41:44.017Z,6.95
2022-08-17T13:43:49.635Z,6.78
2022-08-17T13:45:52.604Z,6.40
2022-08-17T13:48:21.396Z,6.38
2022-08-17T13:50:23.511Z,6.55
2022-08-17T13:52:41.461Z,6.60
2022-08-17T13:54:51.940Z,5.93
2022-08-17T13:57:13.009Z,7.00
2022-08-17T13:59:53.078Z,6.65
2022-08-17T14:01:55.641Z,6.60
2022-08-17T14:03:59.955Z,6.95
2022-08-17T14:06:06.076Z,6.40
2022-08-17T14:08:11.749Z,6.43
2022-08-17T14:10:17.957Z,6.60
2022-08-17T14:12:25.890Z,6.35
2022-08-17T14:14:29.459Z,5.63
2022-08-17T14:16:33.314Z,6.25
2022-08-17T14:18:56.285Z,6.25
2022-08-17T14:21:00.023Z,7.28
2022-08-17T14:23:02.222Z,6.40
2022-08-17T14:25:06.210Z,7.35
2022-08-17T14:27:12.925Z,7.15
2022-08-17T14:29:15.785Z,6.97
2022-08-17T14:31:20.796Z,6.50
2022-08-17T14:33:24.926Z,6.88
2022-08-17T14:35:28.348Z,6.85
2022-08-17T14:37:31.713Z,7.13
2022-08-17T14:39:34.231Z,6.60
2022-08-17T14:41:37.798Z,6.97
2022-08-17T14:43:40.057Z,6.97
2022-08-17T14:45:43.104Z,7.30
2022-08-17T14:47:45.596Z,7.15
2022-08-17T14:49:49.013Z,7.28
2022-08-17T14:51:51.441Z,6.05
2022-08-17T14:53:53.798Z,7.82
2022-08-17T14:55:59.419Z,7.05
2022-08-17T14:58:01.665Z,6.95
2022-08-17T15:00:05.250Z,7.05
2022-08-17T15:02:08.410Z,6.90
2022-08-17T15:04:15.146Z,6.60
2022-08-17T15:06:20.377Z,6.70
2022-08-17T15:08:22.571Z,6.63
2022-08-17T15:10:26.067Z,6.72
2022-08-17T15:12:32.840Z,7.47
2022-08-17T15:14:36.720Z,7.30
2022-08-17T15:16:39.014Z,7.53
2022-08-17T15:18:41.856Z,7.25
2022-08-17T15:20:44.670Z,7.30
2022-08-17T15:22:55.427Z,7.75
2022-08-17T15:25:04.113Z,7.10
2022-08-17T15:27:06.573Z,6.57
2022-08-17T15:29:10.329Z,6.95
2022-08-17T15:31:12.486Z,6.82
2022-08-17T15:33:17.143Z,6.97
2022-08-17T15:35:22.043Z,6.93
2022-08-17T15:37:30.908Z,7.05
2022-08-17T15:39:33.246Z,7.82
2022-08-17T15:41:35.792Z,7.07
2022-08-17T15:43:38.169Z,7.05
2022-08-17T15:45:43.717Z,7.10
2022-08-17T15:47:46.909Z,6.80
2022-08-17T15:49:49.371Z,6.63
2022-08-17T15:51:51.645Z,7.38
2022-08-17T15:54:22.113Z,6.95
2022-08-17T15:56:31.851Z,7.22
2022-08-17T15:58:35.359Z,7.28
2022-08-17T16:00:53.324Z,7.25
2022-08-17T16:03:46.346Z,6.97
2022-08-17T16:05:25.307Z,7.65
2022-08-17T16:07:27.997Z,6.45
2022-08-17T16:09:30.166Z,7.45
2022-08-17T16:11:32.333Z,7.68
2022-08-17T16:13:34.707Z,7.00
2022-08-17T16:15:38.285Z,6.72
2022-08-17T16:17:41.669Z,6.45
2022-08-17T16:19:44.308Z,7.28
2022-08-17T16:21:47.606Z,7.85
2022-08-17T16:23:53.196Z,6.72
2022-08-17T16:25:55.453Z,6.68
2022-08-17T16:27:57.966Z,6.38
2022-08-17T16:30:01.206Z,7.05
2022-08-17T16:32:15.461Z,7.30
2022-08-17T16:34:19.132Z,7.00
2022-08-17T16:36:23.485Z,6.70
2022-08-17T16:38:25.941Z,7.53
2022-08-17T16:40:31.279Z,6.97
2022-08-17T16:42:39.873Z,7.55
2022-08-17T16:44:42.209Z,6.45
2022-08-17T16:46:46.241Z,6.10
2022-08-17T16:48:48.563Z,6.80
2022-08-17T16:51:03.470Z,6.20
2022-08-17T16:53:10.875Z,6.82
2022-08-17T16:55:13.538Z,6.50
2022-08-17T16:57:17.663Z,6.13
2022-08-17T16:59:31.136Z,7.60
2022-08-17T17:01:41.968Z,7.18
2022-08-17T17:03:47.181Z,7.25
2022-08-17T17:06:24.546Z,7.63
2022-08-17T17:08:34.995Z,7.60
2022-08-17T17:10:46.305Z,7.10
2022-08-17T17:13:01.466Z,6.93
2022-08-17T17:15:07.322Z,7.20
2022-08-17T17:17:31.082Z,7.18
2022-08-17T17:19:41.307Z,7.53
2022-08-17T17:22:03.978Z,7.18
2022-08-17T17:24:14.359Z,7.75
2022-08-17T17:26:45.700Z,7.68
2022-08-17T17:29:00.330Z,7.22
2022-08-17T17:31:14.927Z,7.47
2022-08-17T17:33:22.631Z,7.43
2022-08-17T17:35:56.372Z,7.32
2022-08-17T17:38:04.056Z,8.30
2022-08-17T17:40:13.917Z,7.13
2022-08-17T17:42:21.407Z,7.97
2022-08-17T17:44:34.813Z,7.47
2022-08-17T17:46:42.619Z,7.28
2022-08-17T17:48:46.829Z,7.95
2022-08-17T17:52:06.624Z,7.63
2022-08-17T17:54:07.555Z,7.57
2022-08-17T17:56:43.321Z,7.63
2022-08-17T17:59:05.628Z,7.47
2022-08-17T18:01:25.275Z,7.72
2022-08-17T18:03:33.597Z,8.10
2022-08-17T18:05:54.097Z,10.23
2022-08-17T18:08:14.115Z,10.23
2022-08-17T18:10:30.181Z,10.68
2022-08-17T18:12:46.119Z,10.73
2022-08-17T18:14:58.307Z,10.43
2022-08-17T18:17:02.362Z,10.75
2022-08-17T18:19:06.170Z,10.82
2022-08-17T18:21:19.024Z,10.10
2022-08-17T18:23:27.705Z,13.50
2022-08-17T18:25:39.540Z,17.40
2022-08-17T18:27:51.228Z,20.15
2022-08-17T18:29:57.753Z,17.92
2022-08-17T18:32:31.482Z,16.90
2022-08-17T18:34:47.394Z,15.30
2022-08-17T18:36:50.237Z,13.10
2022-08-17T18:39:11.805Z,11.13
2022-08-17T18:41:26.300Z,11.15
2022-08-17T18:43:52.835Z,10.90
2022-08-17T18:45:58.061Z,10.25
2022-08-17T18:48:01.206Z,11.38
2022-08-17T18:50:36.441Z,9.70
2022-08-17T18:52:39.057Z,10.80
2022-08-17T18:54:54.413Z,10.13
2022-08-17T18:56:58.979Z,10.77
2022-08-17T18:59:04.358Z,10.43
2022-08-17T19:01:19.552Z,10.57
2022-08-17T19:03:26.682Z,9.57
2022-08-17T19:05:41.231Z,10.85
2022-08-17T19:07:47.131Z,10.38
2022-08-17T19:10:01.539Z,10.25
2022-08-17T19:12:07.669Z,9.80
2022-08-17T19:14:14.037Z,9.52
2022-08-17T19:16:18.976Z,9.35
2022-08-17T19:18:36.001Z,9.43
2022-08-17T19:20:46.029Z,10.10
2022-08-17T19:22:53.736Z,9.73
2022-08-17T19:25:09.267Z,9.15
2022-08-17T19:27:21.238Z,9.82
2022-08-17T19:29:30.246Z,9.82
2022-08-17T19:31:32.112Z,9.43
2022-08-17T19:33:34.970Z,10.00
2022-08-17T19:36:01.706Z,9.68
2022-08-17T19:38:13.387Z,9.48
2022-08-17T19:43:38.185Z,9.48
2022-08-17T19:45:59.515Z,9.60
2022-08-17T19:48:07.364Z,9.05
2022-08-17T19:50:22.326Z,9.00
2022-08-17T19:52:57.813Z,9.30
2022-08-17T19:54:59.925Z,8.80
2022-08-17T19:57:20.547Z,7.93
2022-08-17T19:59:35.990Z,9.00
2022-08-17T20:01:45.314Z,9.60
2022-08-17T20:04:14.432Z,10.15
2022-08-17T20:06:16.882Z,9.77
2022-08-17T20:08:26.485Z,10.82
2022-08-17T20:10:48.061Z,9.43
2022-08-17T20:13:03.489Z,9.30
2022-08-17T20:15:05.673Z,8.88
2022-08-17T20:17:09.739Z,9.88
2022-08-17T20:19:28.053Z,10.27
2022-08-17T20:21:56.527Z,9.88
2022-08-17T20:24:04.283Z,9.88
2022-08-17T20:26:28.813Z,9.88
2022-08-17T20:28:38.661Z,9.20
2022-08-17T20:30:43.184Z,9.38
2022-08-17T20:33:03.545Z,8.95
2022-08-17T20:35:31.840Z,9.88
2022-08-17T20:37:36.127Z,10.65
2022-08-17T20:40:03.993Z,8.05
2022-08-17T20:42:15.354Z,8.75
2022-08-17T20:44:32.790Z,9.05
2022-08-17T20:46:38.331Z,9.32
2022-08-17T20:48:47.497Z,9.50
2022-08-17T20:50:57.826Z,8.48
2022-08-17T20:53:02.793Z,8.45
2022-08-17T20:55:05.437Z,7.68
2022-08-17T20:57:13.811Z,8.65
2022-08-17T20:59:26.042Z,9.57
2022-08-17T21:01:39.842Z,8.98
2022-08-17T21:03:51.304Z,8.63
2022-08-17T21:06:00.328Z,8.43
2022-08-17T21:08:22.235Z,8.45
2022-08-17T21:10:24.224Z,8.70
2022-08-17T21:12:42.653Z,8.63
2022-08-17T21:14:59.815Z,8.95
2022-08-17T21:17:31.537Z,8.57
2022-08-17T21:20:08.038Z,8.07
2022-08-17T21:22:29.253Z,8.25
2022-08-17T21:24:39.068Z,7.57
2022-08-17T21:27:12.380Z,8.98
2022-08-17T21:29:31.990Z,7.47
2022-08-17T21:31:44.183Z,8.27
2022-08-17T21:34:15.485Z,8.05
2022-08-17T21:36:26.015Z,7.75
2022-08-17T21:38:37.515Z,8.52
2022-08-17T21:40:48.323Z,7.32
2022-08-17T21:42:55.748Z,7.55
2022-08-17T21:45:10.217Z,7.85
2022-08-17T21:47:26.089Z,7.55
2022-08-17T21:49:29.332Z,8.25
2022-08-17T21:51:49.149Z,8.07
2022-08-17T21:53:54.370Z,8.45
2022-08-17T21:55:56.696Z,8.82
2022-08-17T21:58:14.895Z,8.35
2022-08-17T22:00:25.333Z,7.90
2022-08-17T22:02:34.424Z,8.43
2022-08-17T22:04:39.704Z,8.00
2022-08-17T22:06:57.079Z,8.25
2022-08-17T22:09:01.444Z,8.50
2022-08-17T22:11:03.599Z,7.82
2022-08-17T22:13:16.960Z,8.68
2022-08-17T22:15:20.769Z,8.18
2022-08-17T22:17:25.434Z,8.00
2022-08-17T22:19:28.252Z,7.70
2022-08-17T22:21:30.358Z,8.02
2022-08-17T22:24:05.740Z,7.72
2022-08-17T22:26:12.717Z,7.80
2022-08-17T22:28:39.836Z,8.43
2022-08-17T22:30:58.440Z,7.82
2022-08-17T22:33:40.680Z,9.52
2022-08-17T22:35:45.663Z,7.93
2022-08-17T22:37:48.148Z,7.50
2022-08-17T22:40:00.098Z,8.18
2022-08-17T22:42:02.625Z,8.23
2022-08-17T22:44:11.026Z,8.70
2022-08-17T22:46:15.191Z,8.70
2022-08-17T22:48:22.460Z,8.10
2022-08-17T22:50:32.988Z,7.68
2022-08-17T22:53:01.398Z,7.50
2022-08-17T22:55:29.663Z,7.63
2022-08-17T22:57:51.320Z,8.00
2022-08-17T22:59:55.735Z,8.50
2022-08-17T23:02:12.669Z,8.07
2022-08-17T23:04:33.434Z,8.02
2022-08-17T23:06:38.486Z,8.38
2022-08-17T23:08:55.048Z,7.75
2022-08-17T23:11:00.589Z,7.15
2022-08-17T23:13:03.002Z,8.57
2022-08-17T23:15:11.223Z,8.07
2022-08-17T23:17:13.900Z,9.25
2022-08-17T23:19:20.014Z,9.23
2022-08-17T23:21:26.484Z,10.05
2022-08-17T23:23:29.945Z,8.85
2022-08-17T23:25:33.862Z,8.93
2022-08-17T23:27:37.163Z,9.60
2022-08-17T23:29:41.467Z,8.63
2022-08-17T23:31:43.883Z,8.00
2022-08-17T23:33:47.865Z,9.23
2022-08-17T23:35:50.517Z,8.68
2022-08-17T23:37:52.979Z,9.25
2022-08-17T23:39:55.381Z,8.80
2022-08-17T23:41:59.424Z,9.10
2022-08-17T23:44:03.352Z,8.25
2022-08-17T23:46:07.391Z,8.40
2022-08-17T23:48:09.728Z,8.82
2022-08-17T23:50:11.864Z,8.65
2022-08-17T23:52:17.350Z,8.68
2022-08-17T23:54:41.669Z,8.50
2022-08-17T23:56:49.726Z,7.93
2022-08-17T23:58:54.906Z,7.32
